sensor_id;sensor_type;location;lat;lon;timestamp;temperature;humidity
11399;DHT22;5755;48.116;11.608;2022-08-01T00:00:10;20.90;59.60
11399;DHT22;5755;48.116;11.608;2022-08-01T00:02:39;20.90;58.40
11399;DHT22;5755;48.116;11.608;2022-08-01T00:05:09;20.90;57.60
11399;DHT22;5755;48.116;11.608;2022-08-01T00:07:37;20.90;56.70
11399;DHT22;5755;48.116;11.608;2022-08-01T00:10:06;20.80;56.70
11399;DHT22;5755;48.116;11.608;2022-08-01T00:12:33;20.90;56.70
11399;DHT22;5755;48.116;11.608;2022-08-01T00:15:02;20.90;57.90
11399;DHT22;5755;48.116;11.608;2022-08-01T00:17:29;20.80;57.00
11399;DHT22;5755;48.116;11.608;2022-08-01T00:19:56;20.80;56.70
11399;DHT22;5755;48.116;11.608;2022-08-01T00:22:23;20.80;56.60
11399;DHT22;5755;48.116;11.608;2022-08-01T00:24:50;20.80;56.60
11399;DHT22;5755;48.116;11.608;2022-08-01T00:27:21;20.90;56.70
11399;DHT22;5755;48.116;11.608;2022-08-01T00:29:48;20.80;56.60
11399;DHT22;5755;48.116;11.608;2022-08-01T00:32:16;20.90;56.70
11399;DHT22;5755;48.116;11.608;2022-08-01T00:34:43;20.90;56.70
11399;DHT22;5755;48.116;11.608;2022-08-01T00:37:10;20.80;57.80
11399;DHT22;5755;48.116;11.608;2022-08-01T00:39:37;20.90;56.70
11399;DHT22;5755;48.116;11.608;2022-08-01T00:42:07;20.80;56.60
11399;DHT22;5755;48.116;11.608;2022-08-01T00:44:34;20.80;56.70
11399;DHT22;5755;48.116;11.608;2022-08-01T00:47:01;20.70;57.40
11399;DHT22;5755;48.116;11.608;2022-08-01T00:49:30;20.60;57.30
11399;DHT22;5755;48.116;11.608;2022-08-01T00:52:10;20.70;56.50
11399;DHT22;5755;48.116;11.608;2022-08-01T00:54:37;20.70;56.50
11399;DHT22;5755;48.116;11.608;2022-08-01T00:57:04;20.60;56.40
11399;DHT22;5755;48.116;11.608;2022-08-01T00:59:32;20.50;56.30
11399;DHT22;5755;48.116;11.608;2022-08-01T01:02:03;20.50;57.40
11399;DHT22;5755;48.116;11.608;2022-08-01T01:04:35;20.50;56.30
11399;DHT22;5755;48.116;11.608;2022-08-01T01:07:06;20.50;56.30
11399;DHT22;5755;48.116;11.608;2022-08-01T01:09:39;20.50;56.30
11399;DHT22;5755;48.116;11.608;2022-08-01T01:12:15;20.50;56.30
11399;DHT22;5755;48.116;11.608;2022-08-01T01:14:54;20.50;56.30
11399;DHT22;5755;48.116;11.608;2022-08-01T01:17:27;20.50;56.30
11399;DHT22;5755;48.116;11.608;2022-08-01T01:19:59;20.50;54.80
11399;DHT22;5755;48.116;11.608;2022-08-01T01:22:46;20.60;55.10
11399;DHT22;5755;48.116;11.608;2022-08-01T01:25:31;20.50;54.90
11399;DHT22;5755;48.116;11.608;2022-08-01T01:28:08;20.50;57.50
11399;DHT22;5755;48.116;11.608;2022-08-01T01:30:38;20.50;56.30
11399;DHT22;5755;48.116;11.608;2022-08-01T01:33:11;20.50;56.30
11399;DHT22;5755;48.116;11.608;2022-08-01T01:35:45;20.40;56.30
11399;DHT22;5755;48.116;11.608;2022-08-01T01:38:17;20.40;57.40
11399;DHT22;5755;48.116;11.608;2022-08-01T01:40:58;20.30;56.10
11399;DHT22;5755;48.116;11.608;2022-08-01T01:43:27;20.30;56.10
11399;DHT22;5755;48.116;11.608;2022-08-01T01:45:57;20.40;54.60
11399;DHT22;5755;48.116;11.608;2022-08-01T01:48:25;20.40;56.20
11399;DHT22;5755;48.116;11.608;2022-08-01T01:50:57;20.30;56.10
11399;DHT22;5755;48.116;11.608;2022-08-01T01:53:28;20.30;56.10
11399;DHT22;5755;48.116;11.608;2022-08-01T01:55:57;20.30;56.10
11399;DHT22;5755;48.116;11.608;2022-08-01T01:58:31;20.20;56.10
11399;DHT22;5755;48.116;11.608;2022-08-01T02:01:01;20.20;56.10
11399;DHT22;5755;48.116;11.608;2022-08-01T02:03:29;20.20;56.10
11399;DHT22;5755;48.116;11.608;2022-08-01T02:05:58;20.30;56.10
11399;DHT22;5755;48.116;11.608;2022-08-01T02:08:26;20.30;56.10
11399;DHT22;5755;48.116;11.608;2022-08-01T02:10:55;20.40;56.20
11399;DHT22;5755;48.116;11.608;2022-08-01T02:14:00;20.40;56.20
11399;DHT22;5755;48.116;11.608;2022-08-01T02:16:34;20.50;56.30
11399;DHT22;5755;48.116;11.608;2022-08-01T02:19:02;20.40;56.20
11399;DHT22;5755;48.116;11.608;2022-08-01T02:21:34;20.40;57.50
11399;DHT22;5755;48.116;11.608;2022-08-01T02:24:07;20.40;56.20
11399;DHT22;5755;48.116;11.608;2022-08-01T02:26:49;20.40;55.90
11399;DHT22;5755;48.116;11.608;2022-08-01T02:29:21;20.40;55.90
11399;DHT22;5755;48.116;11.608;2022-08-01T02:31:54;20.40;54.20
11399;DHT22;5755;48.116;11.608;2022-08-01T02:34:21;20.30;55.90
11399;DHT22;5755;48.116;11.608;2022-08-01T02:36:53;20.30;54.70
11399;DHT22;5755;48.116;11.608;2022-08-01T02:39:24;20.20;55.10
11399;DHT22;5755;48.116;11.608;2022-08-01T02:42:02;20.20;53.90
11399;DHT22;5755;48.116;11.608;2022-08-01T02:44:37;20.30;52.80
11399;DHT22;5755;48.116;11.608;2022-08-01T02:47:11;20.20;54.40
11399;DHT22;5755;48.116;11.608;2022-08-01T02:49:42;20.30;52.10
11399;DHT22;5755;48.116;11.608;2022-08-01T02:52:13;20.30;52.50
11399;DHT22;5755;48.116;11.608;2022-08-01T02:54:42;20.20;54.50
11399;DHT22;5755;48.116;11.608;2022-08-01T02:57:10;20.20;53.20
11399;DHT22;5755;48.116;11.608;2022-08-01T02:59:37;20.10;56.00
11399;DHT22;5755;48.116;11.608;2022-08-01T03:02:06;20.10;56.00
11399;DHT22;5755;48.116;11.608;2022-08-01T03:04:36;20.10;56.00
11399;DHT22;5755;48.116;11.608;2022-08-01T03:07:06;20.00;55.90
11399;DHT22;5755;48.116;11.608;2022-08-01T03:09:37;19.90;55.80
11399;DHT22;5755;48.116;11.608;2022-08-01T03:12:18;19.90;55.80
11399;DHT22;5755;48.116;11.608;2022-08-01T03:14:47;19.90;55.80
11399;DHT22;5755;48.116;11.608;2022-08-01T03:17:16;19.90;54.50
11399;DHT22;5755;48.116;11.608;2022-08-01T03:19:45;19.90;55.80
11399;DHT22;5755;48.116;11.608;2022-08-01T03:22:13;19.90;55.80
11399;DHT22;5755;48.116;11.608;2022-08-01T03:24:52;19.90;55.80
11399;DHT22;5755;48.116;11.608;2022-08-01T03:27:21;19.90;55.80
11399;DHT22;5755;48.116;11.608;2022-08-01T03:29:50;19.90;55.80
11399;DHT22;5755;48.116;11.608;2022-08-01T03:32:18;19.90;55.80
11399;DHT22;5755;48.116;11.608;2022-08-01T03:34:59;19.90;55.90
11399;DHT22;5755;48.116;11.608;2022-08-01T03:37:28;19.90;55.80
11399;DHT22;5755;48.116;11.608;2022-08-01T03:40:14;19.90;55.90
11399;DHT22;5755;48.116;11.608;2022-08-01T03:42:46;19.80;55.70
11399;DHT22;5755;48.116;11.608;2022-08-01T03:45:21;19.90;55.80
11399;DHT22;5755;48.116;11.608;2022-08-01T03:47:53;19.80;55.80
11399;DHT22;5755;48.116;11.608;2022-08-01T03:50:23;19.80;54.70
11399;DHT22;5755;48.116;11.608;2022-08-01T03:53:00;19.80;54.00
11399;DHT22;5755;48.116;11.608;2022-08-01T03:55:31;19.90;53.50
11399;DHT22;5755;48.116;11.608;2022-08-01T03:58:04;19.80;53.00
11399;DHT22;5755;48.116;11.608;2022-08-01T04:00:32;19.80;53.60
11399;DHT22;5755;48.116;11.608;2022-08-01T04:03:00;19.80;54.40
11399;DHT22;5755;48.116;11.608;2022-08-01T04:05:28;19.80;55.40
11399;DHT22;5755;48.116;11.608;2022-08-01T04:07:56;19.80;55.70
11399;DHT22;5755;48.116;11.608;2022-08-01T04:10:25;19.80;52.70
11399;DHT22;5755;48.116;11.608;2022-08-01T04:12:57;19.80;53.20
11399;DHT22;5755;48.116;11.608;2022-08-01T04:15:24;19.80;54.40
11399;DHT22;5755;48.116;11.608;2022-08-01T04:17:52;19.80;53.80
11399;DHT22;5755;48.116;11.608;2022-08-01T04:20:19;19.80;54.80
11399;DHT22;5755;48.116;11.608;2022-08-01T04:22:48;19.80;55.70
11399;DHT22;5755;48.116;11.608;2022-08-01T04:25:19;19.80;55.60
11399;DHT22;5755;48.116;11.608;2022-08-01T04:27:55;19.80;54.10
11399;DHT22;5755;48.116;11.608;2022-08-01T04:30:44;19.80;54.40
11399;DHT22;5755;48.116;11.608;2022-08-01T04:33:14;19.80;55.70
11399;DHT22;5755;48.116;11.608;2022-08-01T04:35:44;19.80;55.70
11399;DHT22;5755;48.116;11.608;2022-08-01T04:38:16;19.80;55.20
11399;DHT22;5755;48.116;11.608;2022-08-01T04:40:48;19.80;55.70
11399;DHT22;5755;48.116;11.608;2022-08-01T04:43:30;19.80;55.70
11399;DHT22;5755;48.116;11.608;2022-08-01T04:45:58;19.80;55.20
11399;DHT22;5755;48.116;11.608;2022-08-01T04:48:26;19.80;54.00
11399;DHT22;5755;48.116;11.608;2022-08-01T04:50:53;19.80;54.50
11399;DHT22;5755;48.116;11.608;2022-08-01T04:53:22;19.80;55.70
11399;DHT22;5755;48.116;11.608;2022-08-01T04:55:48;19.90;55.00
11399;DHT22;5755;48.116;11.608;2022-08-01T04:58:16;19.90;53.60
11399;DHT22;5755;48.116;11.608;2022-08-01T05:00:43;20.00;56.00
11399;DHT22;5755;48.116;11.608;2022-08-01T05:03:10;20.10;56.10
11399;DHT22;5755;48.116;11.608;2022-08-01T05:05:36;20.10;56.00
11399;DHT22;5755;48.116;11.608;2022-08-01T05:08:04;20.20;53.40
11399;DHT22;5755;48.116;11.608;2022-08-01T05:10:33;20.30;53.30
11399;DHT22;5755;48.116;11.608;2022-08-01T05:13:03;20.40;52.30
11399;DHT22;5755;48.116;11.608;2022-08-01T05:15:31;20.50;49.20
11399;DHT22;5755;48.116;11.608;2022-08-01T05:17:58;20.60;50.60
11399;DHT22;5755;48.116;11.608;2022-08-01T05:20:25;20.70;49.40
11399;DHT22;5755;48.116;11.608;2022-08-01T05:22:52;20.70;50.80
11399;DHT22;5755;48.116;11.608;2022-08-01T05:25:19;20.70;49.10
11399;DHT22;5755;48.116;11.608;2022-08-01T05:27:53;20.80;48.40
11399;DHT22;5755;48.116;11.608;2022-08-01T05:30:20;20.80;48.60
11399;DHT22;5755;48.116;11.608;2022-08-01T05:32:47;20.90;49.50
11399;DHT22;5755;48.116;11.608;2022-08-01T05:35:15;20.90;49.30
11399;DHT22;5755;48.116;11.608;2022-08-01T05:37:42;20.90;50.50
11399;DHT22;5755;48.116;11.608;2022-08-01T05:40:10;21.00;49.20
11399;DHT22;5755;48.116;11.608;2022-08-01T05:42:37;21.20;44.40
11399;DHT22;5755;48.116;11.608;2022-08-01T05:45:07;21.30;45.00
11399;DHT22;5755;48.116;11.608;2022-08-01T05:47:33;21.40;45.40
11399;DHT22;5755;48.116;11.608;2022-08-01T05:50:00;21.60;42.20
11399;DHT22;5755;48.116;11.608;2022-08-01T05:52:27;21.60;43.80
11399;DHT22;5755;48.116;11.608;2022-08-01T05:55:04;21.50;45.10
11399;DHT22;5755;48.116;11.608;2022-08-01T05:57:33;21.40;44.30
11399;DHT22;5755;48.116;11.608;2022-08-01T06:00:27;21.40;43.70
11399;DHT22;5755;48.116;11.608;2022-08-01T06:02:53;21.80;42.30
11399;DHT22;5755;48.116;11.608;2022-08-01T06:05:20;21.90;40.00
11399;DHT22;5755;48.116;11.608;2022-08-01T06:07:47;22.00;39.20
11399;DHT22;5755;48.116;11.608;2022-08-01T06:10:14;21.90;39.30
11399;DHT22;5755;48.116;11.608;2022-08-01T06:12:41;21.80;39.50
11399;DHT22;5755;48.116;11.608;2022-08-01T06:15:21;21.70;41.10
11399;DHT22;5755;48.116;11.608;2022-08-01T06:17:50;21.70;41.50
11399;DHT22;5755;48.116;11.608;2022-08-01T06:20:17;21.60;41.40
11399;DHT22;5755;48.116;11.608;2022-08-01T06:22:45;21.50;42.60
11399;DHT22;5755;48.116;11.608;2022-08-01T06:25:15;21.60;42.10
11399;DHT22;5755;48.116;11.608;2022-08-01T06:27:42;21.60;42.30
11399;DHT22;5755;48.116;11.608;2022-08-01T06:30:10;21.60;42.80
11399;DHT22;5755;48.116;11.608;2022-08-01T06:32:37;21.60;42.10
11399;DHT22;5755;48.116;11.608;2022-08-01T06:35:06;21.70;41.80
11399;DHT22;5755;48.116;11.608;2022-08-01T06:37:33;21.70;42.00
11399;DHT22;5755;48.116;11.608;2022-08-01T06:40:00;21.70;42.00
11399;DHT22;5755;48.116;11.608;2022-08-01T06:42:28;21.90;40.50
11399;DHT22;5755;48.116;11.608;2022-08-01T06:44:57;21.90;40.40
11399;DHT22;5755;48.116;11.608;2022-08-01T06:47:23;21.90;41.20
11399;DHT22;5755;48.116;11.608;2022-08-01T06:49:52;22.00;41.10
11399;DHT22;5755;48.116;11.608;2022-08-01T06:52:20;22.10;39.50
11399;DHT22;5755;48.116;11.608;2022-08-01T06:54:47;22.10;40.40
11399;DHT22;5755;48.116;11.608;2022-08-01T06:57:14;22.10;40.00
11399;DHT22;5755;48.116;11.608;2022-08-01T06:59:40;22.10;41.10
11399;DHT22;5755;48.116;11.608;2022-08-01T07:02:07;22.10;41.40
11399;DHT22;5755;48.116;11.608;2022-08-01T07:04:34;22.20;40.70
11399;DHT22;5755;48.116;11.608;2022-08-01T07:07:04;22.30;38.20
11399;DHT22;5755;48.116;11.608;2022-08-01T07:09:32;22.50;37.80
11399;DHT22;5755;48.116;11.608;2022-08-01T07:11:59;22.40;37.30
11399;DHT22;5755;48.116;11.608;2022-08-01T07:14:28;22.40;39.40
11399;DHT22;5755;48.116;11.608;2022-08-01T07:16:55;22.50;38.50
11399;DHT22;5755;48.116;11.608;2022-08-01T07:19:21;22.60;38.30
11399;DHT22;5755;48.116;11.608;2022-08-01T07:21:48;22.70;36.60
11399;DHT22;5755;48.116;11.608;2022-08-01T07:24:15;22.70;37.40
11399;DHT22;5755;48.116;11.608;2022-08-01T07:26:48;22.70;37.70
11399;DHT22;5755;48.116;11.608;2022-08-01T07:29:23;22.80;37.10
11399;DHT22;5755;48.116;11.608;2022-08-01T07:31:50;22.90;35.40
11399;DHT22;5755;48.116;11.608;2022-08-01T07:34:18;23.00;35.70
11399;DHT22;5755;48.116;11.608;2022-08-01T07:36:45;23.10;38.00
11399;DHT22;5755;48.116;11.608;2022-08-01T07:39:12;23.20;34.80
11399;DHT22;5755;48.116;11.608;2022-08-01T07:41:39;23.20;34.80
11399;DHT22;5755;48.116;11.608;2022-08-01T07:44:10;23.20;34.80
11399;DHT22;5755;48.116;11.608;2022-08-01T07:46:37;23.30;34.90
11399;DHT22;5755;48.116;11.608;2022-08-01T07:49:03;23.20;34.80
11399;DHT22;5755;48.116;11.608;2022-08-01T07:51:30;23.30;36.20
11399;DHT22;5755;48.116;11.608;2022-08-01T07:53:57;23.20;34.80
11399;DHT22;5755;48.116;11.608;2022-08-01T07:56:24;23.40;34.90
11399;DHT22;5755;48.116;11.608;2022-08-01T07:58:53;23.40;34.80
11399;DHT22;5755;48.116;11.608;2022-08-01T08:01:21;23.40;34.90
11399;DHT22;5755;48.116;11.608;2022-08-01T08:03:48;23.50;35.10
11399;DHT22;5755;48.116;11.608;2022-08-01T08:06:15;23.50;35.00
11399;DHT22;5755;48.116;11.608;2022-08-01T08:08:42;23.60;35.10
11399;DHT22;5755;48.116;11.608;2022-08-01T08:11:09;23.60;35.10
11399;DHT22;5755;48.116;11.608;2022-08-01T08:13:36;23.70;35.10
11399;DHT22;5755;48.116;11.608;2022-08-01T08:16:03;23.80;32.80
11399;DHT22;5755;48.116;11.608;2022-08-01T08:18:31;23.80;35.20
11399;DHT22;5755;48.116;11.608;2022-08-01T08:20:58;23.90;35.30
11399;DHT22;5755;48.116;11.608;2022-08-01T08:23:25;24.00;35.20
11399;DHT22;5755;48.116;11.608;2022-08-01T08:26:09;24.00;33.10
11399;DHT22;5755;48.116;11.608;2022-08-01T08:28:36;24.00;33.40
11399;DHT22;5755;48.116;11.608;2022-08-01T08:31:03;24.10;31.70
11399;DHT22;5755;48.116;11.608;2022-08-01T08:33:31;24.10;33.80
11399;DHT22;5755;48.116;11.608;2022-08-01T08:35:58;24.20;32.50
11399;DHT22;5755;48.116;11.608;2022-08-01T08:38:25;24.30;32.70
11399;DHT22;5755;48.116;11.608;2022-08-01T08:40:53;24.40;32.50
11399;DHT22;5755;48.116;11.608;2022-08-01T08:43:20;24.50;31.90
11399;DHT22;5755;48.116;11.608;2022-08-01T08:45:48;24.50;30.40
11399;DHT22;5755;48.116;11.608;2022-08-01T08:48:15;24.60;30.60
11399;DHT22;5755;48.116;11.608;2022-08-01T08:50:45;24.70;30.90
11399;DHT22;5755;48.116;11.608;2022-08-01T08:53:15;25.00;29.00
11399;DHT22;5755;48.116;11.608;2022-08-01T08:55:43;25.60;28.30
11399;DHT22;5755;48.116;11.608;2022-08-01T08:58:12;26.90;23.40
11399;DHT22;5755;48.116;11.608;2022-08-01T09:00:40;28.80;19.90
11399;DHT22;5755;48.116;11.608;2022-08-01T09:03:07;30.60;16.90
11399;DHT22;5755;48.116;11.608;2022-08-01T09:05:34;32.40;13.30
11399;DHT22;5755;48.116;11.608;2022-08-01T09:08:06;33.80;11.00
11399;DHT22;5755;48.116;11.608;2022-08-01T09:10:33;34.90;7.90
11399;DHT22;5755;48.116;11.608;2022-08-01T09:13:08;34.40;8.70
11399;DHT22;5755;48.116;11.608;2022-08-01T09:15:40;34.90;8.00
11399;DHT22;5755;48.116;11.608;2022-08-01T09:18:08;34.70;8.90
11399;DHT22;5755;48.116;11.608;2022-08-01T09:20:40;34.80;8.20
11399;DHT22;5755;48.116;11.608;2022-08-01T09:23:31;35.00;8.50
11399;DHT22;5755;48.116;11.608;2022-08-01T09:25:58;36.40;6.00
11399;DHT22;5755;48.116;11.608;2022-08-01T09:28:28;36.90;4.60
11399;DHT22;5755;48.116;11.608;2022-08-01T09:30:56;36.00;5.70
11399;DHT22;5755;48.116;11.608;2022-08-01T09:33:23;35.70;6.60
11399;DHT22;5755;48.116;11.608;2022-08-01T09:35:54;35.10;6.50
11399;DHT22;5755;48.116;11.608;2022-08-01T09:38:24;34.50;7.60
11399;DHT22;5755;48.116;11.608;2022-08-01T09:40:54;34.80;7.40
11399;DHT22;5755;48.116;11.608;2022-08-01T09:43:22;35.50;6.50
11399;DHT22;5755;48.116;11.608;2022-08-01T09:45:50;35.30;6.90
11399;DHT22;5755;48.116;11.608;2022-08-01T09:48:17;35.20;6.80
11399;DHT22;5755;48.116;11.608;2022-08-01T09:50:46;35.60;7.30
11399;DHT22;5755;48.116;11.608;2022-08-01T09:53:13;35.50;6.90
11399;DHT22;5755;48.116;11.608;2022-08-01T09:55:42;35.40;7.80
11399;DHT22;5755;48.116;11.608;2022-08-01T09:58:10;36.00;4.70
11399;DHT22;5755;48.116;11.608;2022-08-01T10:00:39;36.30;5.50
11399;DHT22;5755;48.116;11.608;2022-08-01T10:03:19;36.00;5.90
11399;DHT22;5755;48.116;11.608;2022-08-01T10:05:46;35.20;6.80
11399;DHT22;5755;48.116;11.608;2022-08-01T10:08:14;35.40;7.30
11399;DHT22;5755;48.116;11.608;2022-08-01T10:11:06;35.10;6.50
11399;DHT22;5755;48.116;11.608;2022-08-01T10:13:33;34.90;6.40
11399;DHT22;5755;48.116;11.608;2022-08-01T10:16:01;34.60;6.60
11399;DHT22;5755;48.116;11.608;2022-08-01T10:18:29;35.90;5.80
11399;DHT22;5755;48.116;11.608;2022-08-01T10:20:57;35.40;6.90
11399;DHT22;5755;48.116;11.608;2022-08-01T10:23:26;34.60;7.10
11399;DHT22;5755;48.116;11.608;2022-08-01T10:25:55;34.40;9.20
11399;DHT22;5755;48.116;11.608;2022-08-01T10:28:25;35.10;6.90
11399;DHT22;5755;48.116;11.608;2022-08-01T10:30:52;35.90;7.60
11399;DHT22;5755;48.116;11.608;2022-08-01T10:33:22;35.10;6.30
11399;DHT22;5755;48.116;11.608;2022-08-01T10:35:50;34.00;9.30
11399;DHT22;5755;48.116;11.608;2022-08-01T10:38:17;33.70;10.50
11399;DHT22;5755;48.116;11.608;2022-08-01T10:40:45;33.10;10.50
11399;DHT22;5755;48.116;11.608;2022-08-01T10:43:17;33.00;10.10
11399;DHT22;5755;48.116;11.608;2022-08-01T10:45:44;33.30;10.00
11399;DHT22;5755;48.116;11.608;2022-08-01T10:48:16;33.90;8.50
11399;DHT22;5755;48.116;11.608;2022-08-01T10:50:46;33.60;7.90
11399;DHT22;5755;48.116;11.608;2022-08-01T10:53:17;33.10;10.60
11399;DHT22;5755;48.116;11.608;2022-08-01T10:55:50;32.60;11.10
11399;DHT22;5755;48.116;11.608;2022-08-01T10:58:25;32.90;12.30
11399;DHT22;5755;48.116;11.608;2022-08-01T11:04:06;31.70;12.30
11399;DHT22;5755;48.116;11.608;2022-08-01T11:06:54;31.60;13.20
11399;DHT22;5755;48.116;11.608;2022-08-01T11:09:30;32.40;11.60
11399;DHT22;5755;48.116;11.608;2022-08-01T11:12:02;32.30;12.80
11399;DHT22;5755;48.116;11.608;2022-08-01T11:17:42;32.20;11.50
11399;DHT22;5755;48.116;11.608;2022-08-01T11:20:14;31.60;12.90
11399;DHT22;5755;48.116;11.608;2022-08-01T11:26:16;31.20;12.50
11399;DHT22;5755;48.116;11.608;2022-08-01T11:28:45;30.40;14.20
11399;DHT22;5755;48.116;11.608;2022-08-01T11:31:28;30.20;14.60
11399;DHT22;5755;48.116;11.608;2022-08-01T11:33:55;30.30;13.60
11399;DHT22;5755;48.116;11.608;2022-08-01T11:36:22;29.80;14.20
11399;DHT22;5755;48.116;11.608;2022-08-01T11:39:15;29.50;14.40
11399;DHT22;5755;48.116;11.608;2022-08-01T11:41:44;29.40;15.60
11399;DHT22;5755;48.116;11.608;2022-08-01T11:44:14;29.50;16.40
11399;DHT22;5755;48.116;11.608;2022-08-01T11:46:53;29.60;17.30
11399;DHT22;5755;48.116;11.608;2022-08-01T11:49:25;29.90;15.10
11399;DHT22;5755;48.116;11.608;2022-08-01T11:52:12;30.10;14.60
11399;DHT22;5755;48.116;11.608;2022-08-01T11:54:41;30.30;14.70
11399;DHT22;5755;48.116;11.608;2022-08-01T11:57:09;30.20;15.70
11399;DHT22;5755;48.116;11.608;2022-08-01T11:59:38;30.30;14.10
11399;DHT22;5755;48.116;11.608;2022-08-01T12:02:20;30.30;14.20
11399;DHT22;5755;48.116;11.608;2022-08-01T12:04:54;30.60;13.30
11399;DHT22;5755;48.116;11.608;2022-08-01T12:07:24;30.90;12.50
11399;DHT22;5755;48.116;11.608;2022-08-01T12:09:59;31.20;12.30
11399;DHT22;5755;48.116;11.608;2022-08-01T12:12:27;31.00;11.30
11399;DHT22;5755;48.116;11.608;2022-08-01T12:14:56;30.80;12.60
11399;DHT22;5755;48.116;11.608;2022-08-01T12:17:33;30.30;12.00
11399;DHT22;5755;48.116;11.608;2022-08-01T12:20:02;30.10;13.70
11399;DHT22;5755;48.116;11.608;2022-08-01T12:22:29;30.10;13.10
11399;DHT22;5755;48.116;11.608;2022-08-01T12:25:05;30.10;13.50
11399;DHT22;5755;48.116;11.608;2022-08-01T12:27:32;30.30;12.70
11399;DHT22;5755;48.116;11.608;2022-08-01T12:29:59;30.30;11.20
11399;DHT22;5755;48.116;11.608;2022-08-01T12:32:28;30.30;11.70
11399;DHT22;5755;48.116;11.608;2022-08-01T12:35:01;30.50;11.90
11399;DHT22;5755;48.116;11.608;2022-08-01T12:37:28;30.40;12.00
11399;DHT22;5755;48.116;11.608;2022-08-01T12:39:56;30.50;13.10
11399;DHT22;5755;48.116;11.608;2022-08-01T12:42:24;30.50;12.40
11399;DHT22;5755;48.116;11.608;2022-08-01T12:44:51;30.50;10.70
11399;DHT22;5755;48.116;11.608;2022-08-01T12:47:19;30.30;10.90
11399;DHT22;5755;48.116;11.608;2022-08-01T12:49:47;30.10;11.60
11399;DHT22;5755;48.116;11.608;2022-08-01T12:52:16;30.10;10.70
11399;DHT22;5755;48.116;11.608;2022-08-01T12:55:05;29.80;12.20
11399;DHT22;5755;48.116;11.608;2022-08-01T12:57:35;29.50;12.90
11399;DHT22;5755;48.116;11.608;2022-08-01T13:00:07;29.60;13.40
11399;DHT22;5755;48.116;11.608;2022-08-01T13:02:34;29.50;12.90
11399;DHT22;5755;48.116;11.608;2022-08-01T13:05:05;29.70;11.60
11399;DHT22;5755;48.116;11.608;2022-08-01T13:07:39;29.70;12.20
11399;DHT22;5755;48.116;11.608;2022-08-01T13:10:07;30.10;11.00
11399;DHT22;5755;48.116;11.608;2022-08-01T13:12:34;30.00;11.60
11399;DHT22;5755;48.116;11.608;2022-08-01T13:15:19;30.00;13.20
11399;DHT22;5755;48.116;11.608;2022-08-01T13:17:47;29.90;12.00
11399;DHT22;5755;48.116;11.608;2022-08-01T13:20:28;29.40;12.80
11399;DHT22;5755;48.116;11.608;2022-08-01T13:23:10;29.40;13.20
11399;DHT22;5755;48.116;11.608;2022-08-01T13:25:47;29.60;13.00
11399;DHT22;5755;48.116;11.608;2022-08-01T13:28:23;29.60;12.60
11399;DHT22;5755;48.116;11.608;2022-08-01T13:30:52;29.40;13.10
11399;DHT22;5755;48.116;11.608;2022-08-01T13:33:19;29.10;13.70
11399;DHT22;5755;48.116;11.608;2022-08-01T13:35:46;28.70;15.10
11399;DHT22;5755;48.116;11.608;2022-08-01T13:38:14;28.10;15.70
11399;DHT22;5755;48.116;11.608;2022-08-01T13:40:41;27.90;15.60
11399;DHT22;5755;48.116;11.608;2022-08-01T13:43:08;27.60;15.40
11399;DHT22;5755;48.116;11.608;2022-08-01T13:45:35;27.50;15.40
11399;DHT22;5755;48.116;11.608;2022-08-01T13:48:04;27.60;15.50
11399;DHT22;5755;48.116;11.608;2022-08-01T13:50:31;27.80;15.60
11399;DHT22;5755;48.116;11.608;2022-08-01T13:52:58;27.90;15.60
11399;DHT22;5755;48.116;11.608;2022-08-01T13:55:27;28.10;15.70
11399;DHT22;5755;48.116;11.608;2022-08-01T13:57:58;28.10;15.70
11399;DHT22;5755;48.116;11.608;2022-08-01T14:00:25;28.10;15.70
11399;DHT22;5755;48.116;11.608;2022-08-01T14:02:52;28.00;15.70
11399;DHT22;5755;48.116;11.608;2022-08-01T14:05:19;28.00;15.60
11399;DHT22;5755;48.116;11.608;2022-08-01T14:07:46;27.70;16.40
11399;DHT22;5755;48.116;11.608;2022-08-01T14:10:13;27.50;15.80
11399;DHT22;5755;48.116;11.608;2022-08-01T14:12:41;27.40;16.20
11399;DHT22;5755;48.116;11.608;2022-08-01T14:15:09;27.40;16.00
11399;DHT22;5755;48.116;11.608;2022-08-01T14:17:36;27.40;15.30
11399;DHT22;5755;48.116;11.608;2022-08-01T14:20:04;27.50;15.40
11399;DHT22;5755;48.116;11.608;2022-08-01T14:22:31;27.50;15.40
11399;DHT22;5755;48.116;11.608;2022-08-01T14:24:58;27.30;15.30
11399;DHT22;5755;48.116;11.608;2022-08-01T14:27:25;27.20;16.30
11399;DHT22;5755;48.116;11.608;2022-08-01T14:29:59;27.10;17.40
11399;DHT22;5755;48.116;11.608;2022-08-01T14:32:26;26.80;18.40
11399;DHT22;5755;48.116;11.608;2022-08-01T14:34:53;26.70;16.90
11399;DHT22;5755;48.116;11.608;2022-08-01T14:37:22;26.50;17.30
11399;DHT22;5755;48.116;11.608;2022-08-01T14:39:52;26.40;17.70
11399;DHT22;5755;48.116;11.608;2022-08-01T14:42:19;26.40;18.20
11399;DHT22;5755;48.116;11.608;2022-08-01T14:44:46;26.30;18.10
11399;DHT22;5755;48.116;11.608;2022-08-01T14:47:14;26.20;18.00
11399;DHT22;5755;48.116;11.608;2022-08-01T14:49:41;26.40;18.30
11399;DHT22;5755;48.116;11.608;2022-08-01T14:52:08;26.40;18.50
11399;DHT22;5755;48.116;11.608;2022-08-01T14:54:35;26.40;18.80
11399;DHT22;5755;48.116;11.608;2022-08-01T14:57:01;26.50;19.30
11399;DHT22;5755;48.116;11.608;2022-08-01T14:59:28;26.40;19.60
11399;DHT22;5755;48.116;11.608;2022-08-01T15:01:55;26.40;20.00
11399;DHT22;5755;48.116;11.608;2022-08-01T15:04:24;26.40;20.30
11399;DHT22;5755;48.116;11.608;2022-08-01T15:06:52;26.20;20.00
11399;DHT22;5755;48.116;11.608;2022-08-01T15:09:19;26.20;20.60
11399;DHT22;5755;48.116;11.608;2022-08-01T15:11:46;26.10;21.30
11399;DHT22;5755;48.116;11.608;2022-08-01T15:14:13;26.00;21.70
11399;DHT22;5755;48.116;11.608;2022-08-01T15:16:58;26.00;21.50
11399;DHT22;5755;48.116;11.608;2022-08-01T15:19:26;26.00;22.10
11399;DHT22;5755;48.116;11.608;2022-08-01T15:21:53;25.90;22.30
11399;DHT22;5755;48.116;11.608;2022-08-01T15:24:29;25.90;23.60
11399;DHT22;5755;48.116;11.608;2022-08-01T15:26:58;25.90;23.50
11399;DHT22;5755;48.116;11.608;2022-08-01T15:29:25;25.90;22.70
11399;DHT22;5755;48.116;11.608;2022-08-01T15:31:58;25.70;23.10
11399;DHT22;5755;48.116;11.608;2022-08-01T15:34:26;25.40;24.00
11399;DHT22;5755;48.116;11.608;2022-08-01T15:36:53;25.30;24.20
11399;DHT22;5755;48.116;11.608;2022-08-01T15:39:22;25.20;24.50
11399;DHT22;5755;48.116;11.608;2022-08-01T15:41:52;25.20;25.20
11399;DHT22;5755;48.116;11.608;2022-08-01T15:44:28;25.10;25.80
11399;DHT22;5755;48.116;11.608;2022-08-01T15:46:55;25.10;26.60
11399;DHT22;5755;48.116;11.608;2022-08-01T15:49:22;24.90;28.10
11399;DHT22;5755;48.116;11.608;2022-08-01T15:52:11;24.70;29.90
11399;DHT22;5755;48.116;11.608;2022-08-01T15:54:40;24.50;31.90
11399;DHT22;5755;48.116;11.608;2022-08-01T15:57:07;24.30;34.60
11399;DHT22;5755;48.116;11.608;2022-08-01T15:59:40;24.10;35.50